• Join FlightAware (Why Join?)
  • Login
  • US Flag 
01:32PM EDT


 

Airport Tracker/Info


-or-


 

Live Flight TrackerFlight Track Log ✈ JIA2497 ✈ 08-May-2013 ✈ KPGV - KCLT

Flight Track Log - Related Links

Times and Time Zones

All times are in EDT time to prevent confusion due to time zone crossing. See the JIA2497 flight status page for this flight to view local times or setup timezone preferences in your user account.

Time Position Orientation Groundspeed Altitude Reporting Facility
EDT Latitude Longitude Course Direction KTS MPH feet Rate Location/Type
07:35PM 35.6772 -78.0092 276° West  Level FlightAware Approximate
07:36PM 35.6406 -77.3350 276° West 371 427 20,000  Level Washington Center
07:37PM 35.7047 -77.3775 332° Northwest 255 293 20,000  Level Washington Center
07:38PM 35.7136 -77.4619 277° West 255 293 20,000 -4,380 Level Washington Center
07:39PM 35.7164 -77.5492 272° West 260 299 11,200 -3,420 Descending Washington Center
07:40PM 35.7233 -77.6439 275° West 271 312 13,300 1,980 Climbing Washington Center
07:41PM 35.7278 -77.7439 273° West 285 328 15,200 1,860 Climbing Washington Center
07:42PM 35.7342 -77.8489 274° West 298 343 17,100 1,380 Climbing Washington Center
07:43PM 35.7406 -77.9567 274° West 309 356 18,000 1,320 Climbing Washington Center
07:44PM 35.7464 -78.0719 274° West 322 371 19,700 960 Climbing Washington Center
07:45PM 35.7522 -78.1925 273° West 344 396 20,000 120 Climbing Washington Center
07:46PM 35.7578 -78.3156 273° West 355 409 20,000  Level Washington Center
07:47PM 35.7656 -78.4386 274° West 361 415 20,000  Level Washington Center
07:48PM 35.7686 -78.5617 272° West 361 415 20,000  Level Washington Center
07:49PM 35.7761 -78.6847 274° West 367 422 20,000  Level Washington Center
07:50PM 35.7808 -78.8231 272° West 367 422 20,000  Level Washington Center
07:51PM 35.7858 -78.9411 273° West 367 422 20,000 -300 Level Washington Center
07:52PM 35.7908 -79.0592 273° West 357 411 19,400 -900 Descending Washington Center
07:53PM 35.7958 -79.1719 273° West 345 397 18,300 -720 Descending Washington Center
07:55PM 35.8053 -79.4375 273° West 344 396 17,000 -420 Descending Atlanta Center
07:56PM 35.8092 -79.5475 273° West 339 390 17,000  Level Atlanta Center
07:57PM 35.8108 -79.6497 271° West 326 375 17,000  Level Atlanta Center
07:58PM 35.8106 -79.7600 270° West 312 359 17,000 -300 Level Atlanta Center
07:59PM 35.8106 -79.8778 270° West 312 359 16,500 -660 Descending Atlanta Center
08:00PM 35.8119 -79.9878 271° West 319 367 15,700 -840 Descending Atlanta Center
08:01PM 35.8122 -80.0569 270° West 335 386 15,200 -720 Descending Atlanta Center
08:01PM 35.8117 -80.1056 269° West 332 382 15,000 -720 Descending Atlanta Center
08:02PM 35.8111 -80.2183 270° West 332 382 14,200 -900 Descending Atlanta Center
08:03PM 35.7953 -80.3164 259° West 332 382 13,300 -600 Descending Atlanta Center
08:04PM 35.7303 -80.3756 216° Southwest 279 321 13,000 -900 Descending Atlanta Center
08:05PM 35.6736 -80.4367 221° Southwest 285 328 11,500 -1,800 Descending Atlanta Center
08:06PM 35.6150 -80.4956 219° Southwest 279 321 9,500 -1,800 Descending Atlanta Center
08:07PM 35.5603 -80.5517 220° Southwest 267 307 8,000 -1,500 Descending Atlanta Center
08:08PM 35.5056 -80.6075 220° Southwest 262 302 6,500 -1,080 Descending Atlanta Center
08:09PM 35.4467 -80.6686 220° Southwest 262 302 5,900 -840 Descending Atlanta Center
08:10PM 35.3917 -80.7217 218° Southwest 257 296 4,900 -1,020 Descending Atlanta Center